Prairie Farm, Wisconsin
Current Conditions -  °F | °C
As of 10:15 PM on Wednesday 26 Nov 2014 (Local Time) from KRPD Reporting Station
Overcast Overcast  
Wind Chill:   Ceiling: 11000
Heat Index: 16°   Visibility: 10mi
Dew Point:   Wind: 13mph
Humidity: 71%   Direction: 340°NNW
Pressure: 30.31"   Gusts: NA
Location:  45.24°N, 91.98°W
Report Text: KRPD 270415Z AUTO 34011KT 10SM SCT060 SCT075 OVC110 M09/M13 A3031 RMK AO2 T10891133
Loading
Personal Weather Stations






























Interactive Weather Map New forecast layout! Learn more

10-Day Weather Forecast

Advertisements
Track Severe Weather on mobile